sensor_id;sensor_type;location;lat;lon;timestamp;temperature;humidity
7028;DHT22;3555;53.248;10.336;2024-01-10T00:00:15;-3.40;99.90
7028;DHT22;3555;53.248;10.336;2024-01-10T00:02:42;-3.40;99.90
7028;DHT22;3555;53.248;10.336;2024-01-10T00:05:09;-3.50;99.90
7028;DHT22;3555;53.248;10.336;2024-01-10T00:07:36;-3.40;99.90
7028;DHT22;3555;53.248;10.336;2024-01-10T00:10:03;-3.40;99.90
7028;DHT22;3555;53.248;10.336;2024-01-10T00:12:31;-3.30;99.90
7028;DHT22;3555;53.248;10.336;2024-01-10T00:15:02;-3.20;99.90
7028;DHT22;3555;53.248;10.336;2024-01-10T00:17:29;-3.20;99.90
7028;DHT22;3555;53.248;10.336;2024-01-10T00:19:57;-3.20;99.90
7028;DHT22;3555;53.248;10.336;2024-01-10T00:22:23;-3.20;99.90
7028;DHT22;3555;53.248;10.336;2024-01-10T00:24:50;-3.20;99.90
7028;DHT22;3555;53.248;10.336;2024-01-10T00:27:17;-3.40;99.90
7028;DHT22;3555;53.248;10.336;2024-01-10T00:29:45;-3.50;99.90
7028;DHT22;3555;53.248;10.336;2024-01-10T00:32:12;-3.60;99.90
7028;DHT22;3555;53.248;10.336;2024-01-10T00:34:39;-3.70;99.90
7028;DHT22;3555;53.248;10.336;2024-01-10T00:37:06;-3.70;99.90
7028;DHT22;3555;53.248;10.336;2024-01-10T00:39:32;-3.60;99.90
7028;DHT22;3555;53.248;10.336;2024-01-10T00:41:59;-3.70;99.90
7028;DHT22;3555;53.248;10.336;2024-01-10T00:44:26;-3.80;99.90
7028;DHT22;3555;53.248;10.336;2024-01-10T00:46:54;-3.90;99.90
7028;DHT22;3555;53.248;10.336;2024-01-10T00:49:21;-3.90;99.90
7028;DHT22;3555;53.248;10.336;2024-01-10T00:51:48;-4.10;99.90
7028;DHT22;3555;53.248;10.336;2024-01-10T00:54:15;-4.20;99.90
7028;DHT22;3555;53.248;10.336;2024-01-10T00:56:42;-4.40;99.90
7028;DHT22;3555;53.248;10.336;2024-01-10T00:59:09;-4.50;99.90
7028;DHT22;3555;53.248;10.336;2024-01-10T01:01:35;-4.50;99.90
7028;DHT22;3555;53.248;10.336;2024-01-10T01:04:04;-4.50;99.90
7028;DHT22;3555;53.248;10.336;2024-01-10T01:06:30;-4.60;99.90
7028;DHT22;3555;53.248;10.336;2024-01-10T01:08:57;-4.90;99.90
7028;DHT22;3555;53.248;10.336;2024-01-10T01:11:24;-5.00;99.90
7028;DHT22;3555;53.248;10.336;2024-01-10T01:13:51;-5.00;99.90
7028;DHT22;3555;53.248;10.336;2024-01-10T01:16:18;-4.90;99.90
7028;DHT22;3555;53.248;10.336;2024-01-10T01:18:45;-4.80;99.90
7028;DHT22;3555;53.248;10.336;2024-01-10T01:21:13;-4.70;99.90
7028;DHT22;3555;53.248;10.336;2024-01-10T01:23:40;-4.60;99.90
7028;DHT22;3555;53.248;10.336;2024-01-10T01:26:07;-4.60;99.90
7028;DHT22;3555;53.248;10.336;2024-01-10T01:28:33;-4.60;99.90
7028;DHT22;3555;53.248;10.336;2024-01-10T01:31:00;-4.60;99.90
7028;DHT22;3555;53.248;10.336;2024-01-10T01:33:27;-4.50;99.90
7028;DHT22;3555;53.248;10.336;2024-01-10T01:35:54;-4.40;99.90
7028;DHT22;3555;53.248;10.336;2024-01-10T01:38:22;-4.30;99.90
7028;DHT22;3555;53.248;10.336;2024-01-10T01:40:49;-4.30;99.90
7028;DHT22;3555;53.248;10.336;2024-01-10T01:43:20;-4.20;99.90
7028;DHT22;3555;53.248;10.336;2024-01-10T01:45:48;-4.20;99.90
7028;DHT22;3555;53.248;10.336;2024-01-10T01:48:16;-4.30;99.90
7028;DHT22;3555;53.248;10.336;2024-01-10T01:50:44;-4.30;99.90
7028;DHT22;3555;53.248;10.336;2024-01-10T01:53:12;-4.30;99.90
7028;DHT22;3555;53.248;10.336;2024-01-10T01:55:41;-4.40;99.90
7028;DHT22;3555;53.248;10.336;2024-01-10T01:58:08;-4.60;99.90
7028;DHT22;3555;53.248;10.336;2024-01-10T02:00:35;-4.60;99.90
7028;DHT22;3555;53.248;10.336;2024-01-10T02:03:05;-4.60;99.90
7028;DHT22;3555;53.248;10.336;2024-01-10T02:05:32;-4.50;99.90
7028;DHT22;3555;53.248;10.336;2024-01-10T02:07:59;-4.40;99.90
7028;DHT22;3555;53.248;10.336;2024-01-10T02:10:26;-4.30;99.90
7028;DHT22;3555;53.248;10.336;2024-01-10T02:12:54;-4.30;99.90
7028;DHT22;3555;53.248;10.336;2024-01-10T02:15:21;-4.30;99.90
7028;DHT22;3555;53.248;10.336;2024-01-10T02:17:48;-4.30;99.90
7028;DHT22;3555;53.248;10.336;2024-01-10T02:20:16;-4.30;99.90
7028;DHT22;3555;53.248;10.336;2024-01-10T02:22:43;-4.30;99.90
7028;DHT22;3555;53.248;10.336;2024-01-10T02:25:12;-4.40;99.90
7028;DHT22;3555;53.248;10.336;2024-01-10T02:27:40;-4.40;99.90
7028;DHT22;3555;53.248;10.336;2024-01-10T02:30:08;-4.30;99.90
7028;DHT22;3555;53.248;10.336;2024-01-10T02:32:36;-4.30;99.90
7028;DHT22;3555;53.248;10.336;2024-01-10T02:35:04;-4.20;99.90
7028;DHT22;3555;53.248;10.336;2024-01-10T02:37:31;-4.20;99.90
7028;DHT22;3555;53.248;10.336;2024-01-10T02:39:58;-4.30;99.90
7028;DHT22;3555;53.248;10.336;2024-01-10T02:42:26;-4.30;99.90
7028;DHT22;3555;53.248;10.336;2024-01-10T02:44:53;-4.30;99.90
7028;DHT22;3555;53.248;10.336;2024-01-10T02:47:20;-4.30;99.90
7028;DHT22;3555;53.248;10.336;2024-01-10T02:49:47;-4.20;99.90
7028;DHT22;3555;53.248;10.336;2024-01-10T02:52:14;-4.30;99.90
7028;DHT22;3555;53.248;10.336;2024-01-10T02:54:41;-4.20;99.90
7028;DHT22;3555;53.248;10.336;2024-01-10T02:57:08;-4.20;99.90
7028;DHT22;3555;53.248;10.336;2024-01-10T02:59:36;-4.30;99.90
7028;DHT22;3555;53.248;10.336;2024-01-10T03:02:03;-4.40;99.90
7028;DHT22;3555;53.248;10.336;2024-01-10T03:04:30;-4.40;99.90
7028;DHT22;3555;53.248;10.336;2024-01-10T03:06:57;-4.80;99.90
7028;DHT22;3555;53.248;10.336;2024-01-10T03:09:24;-5.00;99.90
7028;DHT22;3555;53.248;10.336;2024-01-10T03:11:50;-5.10;99.90
7028;DHT22;3555;53.248;10.336;2024-01-10T03:14:17;-5.20;99.90
7028;DHT22;3555;53.248;10.336;2024-01-10T03:16:45;-5.30;99.90
7028;DHT22;3555;53.248;10.336;2024-01-10T03:19:12;-5.40;99.90
7028;DHT22;3555;53.248;10.336;2024-01-10T03:21:39;-5.50;99.90
7028;DHT22;3555;53.248;10.336;2024-01-10T03:24:06;-5.40;99.90
7028;DHT22;3555;53.248;10.336;2024-01-10T03:26:33;-5.40;99.90
7028;DHT22;3555;53.248;10.336;2024-01-10T03:29:00;-5.20;99.90
7028;DHT22;3555;53.248;10.336;2024-01-10T03:31:28;-5.10;99.90
7028;DHT22;3555;53.248;10.336;2024-01-10T03:33:57;-5.20;99.90
7028;DHT22;3555;53.248;10.336;2024-01-10T03:36:24;-5.30;99.90
7028;DHT22;3555;53.248;10.336;2024-01-10T03:38:51;-5.20;99.90
7028;DHT22;3555;53.248;10.336;2024-01-10T03:41:20;-5.20;99.90
7028;DHT22;3555;53.248;10.336;2024-01-10T03:43:47;-5.20;99.90
7028;DHT22;3555;53.248;10.336;2024-01-10T03:46:14;-5.20;99.90
7028;DHT22;3555;53.248;10.336;2024-01-10T03:48:42;-5.20;99.90
7028;DHT22;3555;53.248;10.336;2024-01-10T03:51:15;-5.40;99.90
7028;DHT22;3555;53.248;10.336;2024-01-10T03:53:42;-5.30;99.90
7028;DHT22;3555;53.248;10.336;2024-01-10T03:56:10;-5.20;99.90
7028;DHT22;3555;53.248;10.336;2024-01-10T03:58:36;-5.30;99.90
7028;DHT22;3555;53.248;10.336;2024-01-10T04:01:07;-5.30;99.90
7028;DHT22;3555;53.248;10.336;2024-01-10T04:03:34;-5.10;99.90
7028;DHT22;3555;53.248;10.336;2024-01-10T04:06:01;-5.10;99.90
7028;DHT22;3555;53.248;10.336;2024-01-10T04:08:30;-5.00;99.90
7028;DHT22;3555;53.248;10.336;2024-01-10T04:10:56;-5.10;99.90
7028;DHT22;3555;53.248;10.336;2024-01-10T04:13:24;-5.10;99.90
7028;DHT22;3555;53.248;10.336;2024-01-10T04:15:50;-5.10;99.90
7028;DHT22;3555;53.248;10.336;2024-01-10T04:18:17;-5.10;99.90
7028;DHT22;3555;53.248;10.336;2024-01-10T04:20:44;-5.20;99.90
7028;DHT22;3555;53.248;10.336;2024-01-10T04:23:11;-5.20;99.90
7028;DHT22;3555;53.248;10.336;2024-01-10T04:25:39;-5.20;99.90
7028;DHT22;3555;53.248;10.336;2024-01-10T04:28:06;-5.20;99.90
7028;DHT22;3555;53.248;10.336;2024-01-10T04:30:33;-5.20;99.90
7028;DHT22;3555;53.248;10.336;2024-01-10T04:33:00;-5.20;99.90
7028;DHT22;3555;53.248;10.336;2024-01-10T04:35:26;-5.10;99.90
7028;DHT22;3555;53.248;10.336;2024-01-10T04:37:53;-4.90;99.90
7028;DHT22;3555;53.248;10.336;2024-01-10T04:40:20;-4.90;99.90
7028;DHT22;3555;53.248;10.336;2024-01-10T04:42:48;-4.90;99.90
7028;DHT22;3555;53.248;10.336;2024-01-10T04:45:15;-5.20;99.90
7028;DHT22;3555;53.248;10.336;2024-01-10T04:47:42;-5.20;99.90
7028;DHT22;3555;53.248;10.336;2024-01-10T04:50:10;-5.20;99.90
7028;DHT22;3555;53.248;10.336;2024-01-10T04:52:37;-5.80;99.90
7028;DHT22;3555;53.248;10.336;2024-01-10T04:55:05;-6.00;99.90
7028;DHT22;3555;53.248;10.336;2024-01-10T04:57:33;-6.00;99.90
7028;DHT22;3555;53.248;10.336;2024-01-10T05:00:01;-6.00;99.90
7028;DHT22;3555;53.248;10.336;2024-01-10T05:02:28;-6.00;99.90
7028;DHT22;3555;53.248;10.336;2024-01-10T05:04:55;-5.80;99.90
7028;DHT22;3555;53.248;10.336;2024-01-10T05:07:22;-5.60;99.90
7028;DHT22;3555;53.248;10.336;2024-01-10T05:09:49;-5.50;99.90
7028;DHT22;3555;53.248;10.336;2024-01-10T05:12:16;-5.50;99.90
7028;DHT22;3555;53.248;10.336;2024-01-10T05:14:43;-5.50;99.90
7028;DHT22;3555;53.248;10.336;2024-01-10T05:17:11;-5.40;99.90
7028;DHT22;3555;53.248;10.336;2024-01-10T05:19:38;-5.60;99.90
7028;DHT22;3555;53.248;10.336;2024-01-10T05:22:05;-5.70;99.90
7028;DHT22;3555;53.248;10.336;2024-01-10T05:24:32;-5.80;99.90
7028;DHT22;3555;53.248;10.336;2024-01-10T05:27:01;-5.80;99.90
7028;DHT22;3555;53.248;10.336;2024-01-10T05:29:28;-5.70;99.90
7028;DHT22;3555;53.248;10.336;2024-01-10T05:31:55;-5.80;99.90
7028;DHT22;3555;53.248;10.336;2024-01-10T05:34:23;-5.90;99.90
7028;DHT22;3555;53.248;10.336;2024-01-10T05:36:50;-5.90;99.90
7028;DHT22;3555;53.248;10.336;2024-01-10T05:39:17;-5.80;99.90
7028;DHT22;3555;53.248;10.336;2024-01-10T05:41:46;-5.60;99.90
7028;DHT22;3555;53.248;10.336;2024-01-10T05:44:12;-5.60;99.90
7028;DHT22;3555;53.248;10.336;2024-01-10T05:46:40;-5.60;99.90
7028;DHT22;3555;53.248;10.336;2024-01-10T05:49:09;-5.80;99.90
7028;DHT22;3555;53.248;10.336;2024-01-10T05:51:37;-5.90;99.90
7028;DHT22;3555;53.248;10.336;2024-01-10T05:54:04;-5.90;99.90
7028;DHT22;3555;53.248;10.336;2024-01-10T05:56:32;-5.80;99.90
7028;DHT22;3555;53.248;10.336;2024-01-10T05:58:59;-5.70;99.90
7028;DHT22;3555;53.248;10.336;2024-01-10T06:01:26;-5.60;99.90
7028;DHT22;3555;53.248;10.336;2024-01-10T06:03:54;-5.50;99.90
7028;DHT22;3555;53.248;10.336;2024-01-10T06:06:22;-5.40;99.90
7028;DHT22;3555;53.248;10.336;2024-01-10T06:08:50;-5.30;99.90
7028;DHT22;3555;53.248;10.336;2024-01-10T06:11:18;-5.30;99.90
7028;DHT22;3555;53.248;10.336;2024-01-10T06:13:45;-5.20;99.90
7028;DHT22;3555;53.248;10.336;2024-01-10T06:16:12;-5.20;99.90
7028;DHT22;3555;53.248;10.336;2024-01-10T06:18:39;-5.10;99.90
7028;DHT22;3555;53.248;10.336;2024-01-10T06:21:06;-5.10;99.90
7028;DHT22;3555;53.248;10.336;2024-01-10T06:23:33;-5.40;99.90
7028;DHT22;3555;53.248;10.336;2024-01-10T06:26:01;-5.70;99.90
7028;DHT22;3555;53.248;10.336;2024-01-10T06:28:29;-5.80;99.90
7028;DHT22;3555;53.248;10.336;2024-01-10T06:30:56;-6.00;99.90
7028;DHT22;3555;53.248;10.336;2024-01-10T06:33:22;-6.10;99.90
7028;DHT22;3555;53.248;10.336;2024-01-10T06:35:49;-6.20;99.90
7028;DHT22;3555;53.248;10.336;2024-01-10T06:38:16;-6.10;99.90
7028;DHT22;3555;53.248;10.336;2024-01-10T06:40:45;-6.10;99.90
7028;DHT22;3555;53.248;10.336;2024-01-10T06:43:14;-6.00;99.90
7028;DHT22;3555;53.248;10.336;2024-01-10T06:45:41;-5.90;99.90
7028;DHT22;3555;53.248;10.336;2024-01-10T06:48:08;-5.90;99.90
7028;DHT22;3555;53.248;10.336;2024-01-10T06:50:36;-5.90;99.90
7028;DHT22;3555;53.248;10.336;2024-01-10T06:53:03;-5.90;99.90
7028;DHT22;3555;53.248;10.336;2024-01-10T06:55:30;-6.00;99.90
7028;DHT22;3555;53.248;10.336;2024-01-10T06:57:57;-6.10;99.90
7028;DHT22;3555;53.248;10.336;2024-01-10T07:00:25;-6.00;99.90
7028;DHT22;3555;53.248;10.336;2024-01-10T07:02:52;-6.10;99.90
7028;DHT22;3555;53.248;10.336;2024-01-10T07:05:19;-6.10;99.90
7028;DHT22;3555;53.248;10.336;2024-01-10T07:07:46;-6.00;99.90
7028;DHT22;3555;53.248;10.336;2024-01-10T07:10:15;-6.10;99.90
7028;DHT22;3555;53.248;10.336;2024-01-10T07:12:42;-6.10;99.90
7028;DHT22;3555;53.248;10.336;2024-01-10T07:15:09;-6.10;99.90
7028;DHT22;3555;53.248;10.336;2024-01-10T07:17:38;-6.00;99.90
7028;DHT22;3555;53.248;10.336;2024-01-10T07:20:06;-5.90;99.90
7028;DHT22;3555;53.248;10.336;2024-01-10T07:22:34;-5.90;99.90
7028;DHT22;3555;53.248;10.336;2024-01-10T07:25:01;-5.90;99.90
7028;DHT22;3555;53.248;10.336;2024-01-10T07:27:28;-6.20;99.90
7028;DHT22;3555;53.248;10.336;2024-01-10T07:29:55;-6.30;99.90
7028;DHT22;3555;53.248;10.336;2024-01-10T07:32:23;-6.30;99.90
7028;DHT22;3555;53.248;10.336;2024-01-10T07:34:51;-6.20;99.90
7028;DHT22;3555;53.248;10.336;2024-01-10T07:37:18;-6.10;99.90
7028;DHT22;3555;53.248;10.336;2024-01-10T07:39:46;-6.00;99.90
7028;DHT22;3555;53.248;10.336;2024-01-10T07:42:13;-6.10;99.90
7028;DHT22;3555;53.248;10.336;2024-01-10T07:44:40;-6.10;99.90
7028;DHT22;3555;53.248;10.336;2024-01-10T07:47:07;-6.20;99.90
7028;DHT22;3555;53.248;10.336;2024-01-10T07:49:34;-6.20;99.90
7028;DHT22;3555;53.248;10.336;2024-01-10T07:52:02;-6.30;99.90
7028;DHT22;3555;53.248;10.336;2024-01-10T07:54:30;-6.40;99.90
7028;DHT22;3555;53.248;10.336;2024-01-10T07:56:57;-6.40;99.90
7028;DHT22;3555;53.248;10.336;2024-01-10T07:59:24;-6.50;99.90
7028;DHT22;3555;53.248;10.336;2024-01-10T08:01:55;-6.40;99.90
7028;DHT22;3555;53.248;10.336;2024-01-10T08:04:24;-6.40;99.90
7028;DHT22;3555;53.248;10.336;2024-01-10T08:06:51;-6.50;99.90
7028;DHT22;3555;53.248;10.336;2024-01-10T08:09:19;-6.60;99.90
7028;DHT22;3555;53.248;10.336;2024-01-10T08:11:46;-6.80;99.90
7028;DHT22;3555;53.248;10.336;2024-01-10T08:14:13;-6.70;99.90
7028;DHT22;3555;53.248;10.336;2024-01-10T08:16:41;-6.70;99.90
7028;DHT22;3555;53.248;10.336;2024-01-10T08:19:07;-6.80;99.90
7028;DHT22;3555;53.248;10.336;2024-01-10T08:21:35;-6.90;99.90
7028;DHT22;3555;53.248;10.336;2024-01-10T08:24:02;-6.70;99.90
7028;DHT22;3555;53.248;10.336;2024-01-10T08:26:31;-6.70;99.90
7028;DHT22;3555;53.248;10.336;2024-01-10T08:28:58;-6.70;99.90
7028;DHT22;3555;53.248;10.336;2024-01-10T08:31:25;-6.70;99.90
7028;DHT22;3555;53.248;10.336;2024-01-10T08:33:53;-6.60;99.90
7028;DHT22;3555;53.248;10.336;2024-01-10T08:36:19;-6.60;99.90
7028;DHT22;3555;53.248;10.336;2024-01-10T08:38:46;-6.60;99.90
7028;DHT22;3555;53.248;10.336;2024-01-10T08:41:14;-6.40;99.90
7028;DHT22;3555;53.248;10.336;2024-01-10T08:43:42;-6.50;99.90
7028;DHT22;3555;53.248;10.336;2024-01-10T08:46:09;-6.60;99.90
7028;DHT22;3555;53.248;10.336;2024-01-10T08:48:36;-6.70;99.90
7028;DHT22;3555;53.248;10.336;2024-01-10T08:51:03;-6.70;99.90
7028;DHT22;3555;53.248;10.336;2024-01-10T08:53:31;-6.60;99.90
7028;DHT22;3555;53.248;10.336;2024-01-10T08:55:58;-6.60;99.90
7028;DHT22;3555;53.248;10.336;2024-01-10T08:58:25;-6.50;99.90
7028;DHT22;3555;53.248;10.336;2024-01-10T09:00:53;-6.30;99.90
7028;DHT22;3555;53.248;10.336;2024-01-10T09:03:20;-6.30;99.90
7028;DHT22;3555;53.248;10.336;2024-01-10T09:05:47;-6.30;99.90
7028;DHT22;3555;53.248;10.336;2024-01-10T09:08:14;-6.30;99.90
7028;DHT22;3555;53.248;10.336;2024-01-10T09:10:41;-6.10;99.90
7028;DHT22;3555;53.248;10.336;2024-01-10T09:13:08;-6.10;99.90
7028;DHT22;3555;53.248;10.336;2024-01-10T09:15:35;-6.00;99.90
7028;DHT22;3555;53.248;10.336;2024-01-10T09:18:03;-5.90;99.90
7028;DHT22;3555;53.248;10.336;2024-01-10T09:20:31;-5.80;99.90
7028;DHT22;3555;53.248;10.336;2024-01-10T09:22:58;-5.60;99.90
7028;DHT22;3555;53.248;10.336;2024-01-10T09:25:25;-5.40;99.90
7028;DHT22;3555;53.248;10.336;2024-01-10T09:27:52;-5.30;99.90
7028;DHT22;3555;53.248;10.336;2024-01-10T09:30:19;-5.20;99.90
7028;DHT22;3555;53.248;10.336;2024-01-10T09:32:46;-5.20;99.90
7028;DHT22;3555;53.248;10.336;2024-01-10T09:35:15;-5.10;99.90
7028;DHT22;3555;53.248;10.336;2024-01-10T09:37:43;-5.10;99.90
7028;DHT22;3555;53.248;10.336;2024-01-10T09:40:14;-5.20;99.90
7028;DHT22;3555;53.248;10.336;2024-01-10T09:42:41;-5.20;99.90
7028;DHT22;3555;53.248;10.336;2024-01-10T09:45:10;-5.30;99.90
7028;DHT22;3555;53.248;10.336;2024-01-10T09:47:39;-5.30;99.90
7028;DHT22;3555;53.248;10.336;2024-01-10T09:50:07;-5.30;99.90
7028;DHT22;3555;53.248;10.336;2024-01-10T09:52:41;-5.40;99.90
7028;DHT22;3555;53.248;10.336;2024-01-10T09:55:08;-5.40;99.90
7028;DHT22;3555;53.248;10.336;2024-01-10T09:57:36;-5.30;99.90
7028;DHT22;3555;53.248;10.336;2024-01-10T10:00:05;-5.20;99.90
7028;DHT22;3555;53.248;10.336;2024-01-10T10:02:38;-5.00;99.90
7028;DHT22;3555;53.248;10.336;2024-01-10T10:05:08;-4.80;99.90
7028;DHT22;3555;53.248;10.336;2024-01-10T10:07:45;-4.60;99.90
7028;DHT22;3555;53.248;10.336;2024-01-10T10:10:12;-4.60;99.90
7028;DHT22;3555;53.248;10.336;2024-01-10T10:12:44;-4.60;99.90
7028;DHT22;3555;53.248;10.336;2024-01-10T10:15:13;-4.60;99.90
7028;DHT22;3555;53.248;10.336;2024-01-10T10:17:41;-4.60;99.90
7028;DHT22;3555;53.248;10.336;2024-01-10T10:20:14;-4.50;99.90
7028;DHT22;3555;53.248;10.336;2024-01-10T10:22:58;-4.40;99.90
7028;DHT22;3555;53.248;10.336;2024-01-10T10:25:27;-4.20;99.90
7028;DHT22;3555;53.248;10.336;2024-01-10T10:27:55;-4.00;99.90
7028;DHT22;3555;53.248;10.336;2024-01-10T10:30:22;-3.90;99.90
7028;DHT22;3555;53.248;10.336;2024-01-10T10:32:49;-3.70;99.90
7028;DHT22;3555;53.248;10.336;2024-01-10T10:35:15;-3.60;99.90
7028;DHT22;3555;53.248;10.336;2024-01-10T10:37:42;-3.40;99.90
7028;DHT22;3555;53.248;10.336;2024-01-10T10:40:11;-3.30;99.90
7028;DHT22;3555;53.248;10.336;2024-01-10T10:42:44;-3.20;99.90
7028;DHT22;3555;53.248;10.336;2024-01-10T10:45:14;-3.20;99.90
7028;DHT22;3555;53.248;10.336;2024-01-10T10:47:43;-3.00;99.90
7028;DHT22;3555;53.248;10.336;2024-01-10T10:50:13;-2.80;99.90
7028;DHT22;3555;53.248;10.336;2024-01-10T10:52:44;-2.80;99.90
7028;DHT22;3555;53.248;10.336;2024-01-10T10:55:15;-2.80;99.90
7028;DHT22;3555;53.248;10.336;2024-01-10T10:57:44;-2.70;99.90
7028;DHT22;3555;53.248;10.336;2024-01-10T11:00:13;-2.50;99.90
7028;DHT22;3555;53.248;10.336;2024-01-10T11:02:42;-2.30;99.90
7028;DHT22;3555;53.248;10.336;2024-01-10T11:05:09;-2.20;99.90
7028;DHT22;3555;53.248;10.336;2024-01-10T11:07:35;-2.20;99.90
7028;DHT22;3555;53.248;10.336;2024-01-10T11:10:04;-2.30;99.90
7028;DHT22;3555;53.248;10.336;2024-01-10T11:12:53;-2.30;99.90
7028;DHT22;3555;53.248;10.336;2024-01-10T11:15:34;-2.30;99.90
7028;DHT22;3555;53.248;10.336;2024-01-10T11:18:18;-2.50;99.90
7028;DHT22;3555;53.248;10.336;2024-01-10T11:20:57;-2.70;99.90
7028;DHT22;3555;53.248;10.336;2024-01-10T11:23:46;-3.00;99.90
7028;DHT22;3555;53.248;10.336;2024-01-10T11:26:14;-3.10;99.90
7028;DHT22;3555;53.248;10.336;2024-01-10T11:28:43;-3.00;99.90
7028;DHT22;3555;53.248;10.336;2024-01-10T11:31:13;-3.10;99.90
7028;DHT22;3555;53.248;10.336;2024-01-10T11:33:41;-3.20;99.90
7028;DHT22;3555;53.248;10.336;2024-01-10T11:36:11;-3.20;99.90
7028;DHT22;3555;53.248;10.336;2024-01-10T11:38:44;-3.30;99.90
7028;DHT22;3555;53.248;10.336;2024-01-10T11:41:20;-3.30;99.90
7028;DHT22;3555;53.248;10.336;2024-01-10T11:46:50;-3.30;99.90
7028;DHT22;3555;53.248;10.336;2024-01-10T11:49:20;-3.20;99.90
7028;DHT22;3555;53.248;10.336;2024-01-10T11:51:48;-3.30;99.90
7028;DHT22;3555;53.248;10.336;2024-01-10T11:57:20;-3.30;99.90
7028;DHT22;3555;53.248;10.336;2024-01-10T11:59:52;-3.10;99.90
7028;DHT22;3555;53.248;10.336;2024-01-10T12:02:21;-3.10;99.90
7028;DHT22;3555;53.248;10.336;2024-01-10T12:04:49;-3.00;99.90
7028;DHT22;3555;53.248;10.336;2024-01-10T12:07:17;-2.80;99.90
7028;DHT22;3555;53.248;10.336;2024-01-10T12:09:44;-2.80;99.90
7028;DHT22;3555;53.248;10.336;2024-01-10T12:12:12;-2.70;99.90
7028;DHT22;3555;53.248;10.336;2024-01-10T12:14:39;-2.80;99.90
7028;DHT22;3555;53.248;10.336;2024-01-10T12:17:07;-2.70;99.90
7028;DHT22;3555;53.248;10.336;2024-01-10T12:19:35;-2.60;99.90
7028;DHT22;3555;53.248;10.336;2024-01-10T12:22:03;-2.70;99.90
7028;DHT22;3555;53.248;10.336;2024-01-10T12:24:31;-2.50;99.90
7028;DHT22;3555;53.248;10.336;2024-01-10T12:26:58;-2.50;99.90
7028;DHT22;3555;53.248;10.336;2024-01-10T12:29:26;-2.80;99.90
7028;DHT22;3555;53.248;10.336;2024-01-10T12:31:53;-3.00;99.90
7028;DHT22;3555;53.248;10.336;2024-01-10T12:34:20;-2.90;99.90
7028;DHT22;3555;53.248;10.336;2024-01-10T12:36:49;-2.90;99.90
7028;DHT22;3555;53.248;10.336;2024-01-10T12:39:16;-2.80;99.90
7028;DHT22;3555;53.248;10.336;2024-01-10T12:41:43;-2.80;99.90
7028;DHT22;3555;53.248;10.336;2024-01-10T12:44:11;-2.70;99.90
7028;DHT22;3555;53.248;10.336;2024-01-10T12:46:49;-2.80;99.90
7028;DHT22;3555;53.248;10.336;2024-01-10T12:49:17;-2.80;99.90
7028;DHT22;3555;53.248;10.336;2024-01-10T12:51:44;-2.70;99.90
7028;DHT22;3555;53.248;10.336;2024-01-10T12:54:14;-2.70;99.90
7028;DHT22;3555;53.248;10.336;2024-01-10T12:56:41;-2.60;99.90
7028;DHT22;3555;53.248;10.336;2024-01-10T12:59:08;-2.70;99.90
7028;DHT22;3555;53.248;10.336;2024-01-10T13:01:36;-2.70;99.90
7028;DHT22;3555;53.248;10.336;2024-01-10T13:04:03;-2.70;99.90
7028;DHT22;3555;53.248;10.336;2024-01-10T13:06:30;-2.80;99.90
7028;DHT22;3555;53.248;10.336;2024-01-10T13:08:57;-2.70;99.90
7028;DHT22;3555;53.248;10.336;2024-01-10T13:11:25;-2.70;99.90
7028;DHT22;3555;53.248;10.336;2024-01-10T13:13:52;-3.00;99.90
7028;DHT22;3555;53.248;10.336;2024-01-10T13:16:19;-3.00;99.90
7028;DHT22;3555;53.248;10.336;2024-01-10T13:18:46;-2.90;99.90
7028;DHT22;3555;53.248;10.336;2024-01-10T13:21:13;-3.00;99.90
7028;DHT22;3555;53.248;10.336;2024-01-10T13:23:40;-3.00;99.90
7028;DHT22;3555;53.248;10.336;2024-01-10T13:26:07;-3.00;99.90
7028;DHT22;3555;53.248;10.336;2024-01-10T13:28:36;-3.00;99.90
7028;DHT22;3555;53.248;10.336;2024-01-10T13:31:04;-3.00;99.90
7028;DHT22;3555;53.248;10.336;2024-01-10T13:33:30;-3.20;99.90
7028;DHT22;3555;53.248;10.336;2024-01-10T13:35:57;-3.30;99.90
7028;DHT22;3555;53.248;10.336;2024-01-10T13:38:24;-3.40;99.90
7028;DHT22;3555;53.248;10.336;2024-01-10T13:40:52;-3.40;99.90
7028;DHT22;3555;53.248;10.336;2024-01-10T13:43:18;-3.30;99.90
7028;DHT22;3555;53.248;10.336;2024-01-10T13:45:47;-3.30;99.90
7028;DHT22;3555;53.248;10.336;2024-01-10T13:48:14;-3.40;99.90
7028;DHT22;3555;53.248;10.336;2024-01-10T13:50:41;-3.30;99.90
7028;DHT22;3555;53.248;10.336;2024-01-10T13:53:08;-3.30;99.90
7028;DHT22;3555;53.248;10.336;2024-01-10T13:55:35;-3.30;99.90
7028;DHT22;3555;53.248;10.336;2024-01-10T13:58:02;-3.40;99.90
7028;DHT22;3555;53.248;10.336;2024-01-10T14:00:29;-3.20;99.90
7028;DHT22;3555;53.248;10.336;2024-01-10T14:02:58;-3.20;99.90
7028;DHT22;3555;53.248;10.336;2024-01-10T14:05:26;-3.40;99.90
7028;DHT22;3555;53.248;10.336;2024-01-10T14:07:53;-3.50;99.90
7028;DHT22;3555;53.248;10.336;2024-01-10T14:10:20;-3.60;99.90
7028;DHT22;3555;53.248;10.336;2024-01-10T14:12:47;-3.50;99.90
7028;DHT22;3555;53.248;10.336;2024-01-10T14:15:14;-3.60;99.90
7028;DHT22;3555;53.248;10.336;2024-01-10T14:17:41;-3.50;99.90
7028;DHT22;3555;53.248;10.336;2024-01-10T14:20:10;-3.60;99.90
7028;DHT22;3555;53.248;10.336;2024-01-10T14:22:38;-3.60;99.90
7028;DHT22;3555;53.248;10.336;2024-01-10T14:25:07;-3.60;99.90
7028;DHT22;3555;53.248;10.336;2024-01-10T14:27:35;-3.50;99.90
7028;DHT22;3555;53.248;10.336;2024-01-10T14:30:05;-3.50;99.90
7028;DHT22;3555;53.248;10.336;2024-01-10T14:32:34;-3.50;99.90
7028;DHT22;3555;53.248;10.336;2024-01-10T14:35:01;-3.40;99.90
7028;DHT22;3555;53.248;10.336;2024-01-10T14:37:29;-3.40;99.90
7028;DHT22;3555;53.248;10.336;2024-01-10T14:39:56;-3.60;99.90
7028;DHT22;3555;53.248;10.336;2024-01-10T14:42:23;-3.70;99.90
7028;DHT22;3555;53.248;10.336;2024-01-10T14:44:50;-3.70;99.90
7028;DHT22;3555;53.248;10.336;2024-01-10T14:47:17;-3.60;99.90
7028;DHT22;3555;53.248;10.336;2024-01-10T14:49:44;-3.50;99.90
7028;DHT22;3555;53.248;10.336;2024-01-10T14:52:11;-3.50;99.90
7028;DHT22;3555;53.248;10.336;2024-01-10T14:54:39;-3.60;99.90
7028;DHT22;3555;53.248;10.336;2024-01-10T14:57:06;-3.50;99.90
7028;DHT22;3555;53.248;10.336;2024-01-10T14:59:33;-3.50;99.90
7028;DHT22;3555;53.248;10.336;2024-01-10T15:02:00;-3.60;99.90
7028;DHT22;3555;53.248;10.336;2024-01-10T15:04:28;-3.60;99.90
7028;DHT22;3555;53.248;10.336;2024-01-10T15:06:55;-3.70;99.90
7028;DHT22;3555;53.248;10.336;2024-01-10T15:09:22;-3.70;99.90
7028;DHT22;3555;53.248;10.336;2024-01-10T15:11:51;-3.60;99.90
7028;DHT22;3555;53.248;10.336;2024-01-10T15:14:19;-3.60;99.90
7028;DHT22;3555;53.248;10.336;2024-01-10T15:16:46;-3.60;99.90
7028;DHT22;3555;53.248;10.336;2024-01-10T15:19:13;-3.50;99.90
7028;DHT22;3555;53.248;10.336;2024-01-10T15:21:40;-3.50;99.90
7028;DHT22;3555;53.248;10.336;2024-01-10T15:24:07;-3.50;99.90
7028;DHT22;3555;53.248;10.336;2024-01-10T15:26:33;-3.60;99.90
7028;DHT22;3555;53.248;10.336;2024-01-10T15:29:02;-3.60;99.90
7028;DHT22;3555;53.248;10.336;2024-01-10T15:31:29;-3.80;99.90
7028;DHT22;3555;53.248;10.336;2024-01-10T15:33:57;-3.90;99.90
7028;DHT22;3555;53.248;10.336;2024-01-10T15:36:24;-3.90;99.90
7028;DHT22;3555;53.248;10.336;2024-01-10T15:38:51;-4.10;99.90
7028;DHT22;3555;53.248;10.336;2024-01-10T15:41:18;-3.90;99.90
7028;DHT22;3555;53.248;10.336;2024-01-10T15:43:44;-3.90;99.90
7028;DHT22;3555;53.248;10.336;2024-01-10T15:46:19;-3.80;99.90
7028;DHT22;3555;53.248;10.336;2024-01-10T15:48:46;-3.90;99.90
7028;DHT22;3555;53.248;10.336;2024-01-10T15:51:12;-4.00;99.90
7028;DHT22;3555;53.248;10.336;2024-01-10T15:53:40;-3.90;99.90